Time;durP1;ratioP1;P1;durP2;ratioP2;P2;SDS_P1;SDS_P2;PMS_P1;PMS_P2;Temp;Humidity;BMP_temperature;BMP_pressure;BME280_temperature;BME280_humidity;BME280_pressure;Samples;Min_cycle;Max_cycle;Signal;HPM_P1;HPM_P2
2021/01/15 00:01:23;;;;;;;8.18;2.25;;;2.30;99.90;;;;;;5032303;28;20042;-47
2021/01/15 00:03:51;;;;;;;3.63;1.50;;;2.20;99.90;;;;;;5019529;28;20080;-47
2021/01/15 00:06:20;;;;;;;2.55;0.50;;;2.30;99.90;;;;;;5031569;28;20060;-47
2021/01/15 00:08:46;;;;;;;1.05;0.50;;;2.80;99.90;;;;;;5032077;28;20049;-47
2021/01/15 00:11:32;;;;;;;2.70;1.73;;;3.10;99.90;;;;;;5031729;28;20422;-47
2021/01/15 00:14:01;;;;;;;1.83;1.00;;;2.80;99.90;;;;;;5026675;28;20065;-48
2021/01/15 00:16:31;;;;;;;5.55;2.33;;;2.90;99.90;;;;;;5028748;28;20046;-47
2021/01/15 00:19:00;;;;;;;5.15;2.45;;;2.70;99.90;;;;;;5031389;28;20053;-47
2021/01/15 00:21:32;;;;;;;4.90;2.08;;;2.40;99.90;;;;;;5030815;28;20054;-48
2021/01/15 00:24:04;;;;;;;4.50;1.70;;;2.20;99.90;;;;;;5028924;28;20481;-47
2021/01/15 00:26:32;;;;;;;3.60;0.95;;;2.00;99.90;;;;;;5030600;28;20072;-47
2021/01/15 00:28:58;;;;;;;0.60;0.40;;;2.10;99.90;;;;;;5013757;28;20049;-48
2021/01/15 00:31:34;;;;;;;3.90;0.50;;;2.50;99.90;;;;;;5025887;28;20098;-47
2021/01/15 00:34:01;;;;;;;4.13;0.30;;;2.80;99.90;;;;;;5021390;28;20063;-48
2021/01/15 00:36:28;;;;;;;0.93;0.30;;;3.10;99.90;;;;;;5031946;28;20042;-47
2021/01/15 00:38:55;;;;;;;0.45;0.30;;;3.60;99.90;;;;;;5029711;28;20053;-47
2021/01/15 00:41:21;;;;;;;1.30;0.20;;;3.50;99.90;;;;;;5016381;28;20387;-47
2021/01/15 00:43:48;;;;;;;0.32;0.20;;;3.40;99.90;;;;;;5026564;28;20056;-47
2021/01/15 00:46:27;;;;;;;1.30;0.50;;;3.40;99.90;;;;;;5028295;28;20483;-47
2021/01/15 00:48:54;;;;;;;1.40;0.40;;;3.20;99.90;;;;;;5024959;28;20050;-47
2021/01/15 00:51:21;;;;;;;1.17;0.30;;;3.20;99.90;;;;;;5025886;28;20471;-47
2021/01/15 00:53:48;;;;;;;1.55;0.30;;;3.40;99.90;;;;;;5030642;28;20068;-47
2021/01/15 00:56:18;;;;;;;1.85;0.30;;;3.30;99.90;;;;;;5028285;28;20057;-47
2021/01/15 00:58:46;;;;;;;1.20;0.40;;;3.10;99.90;;;;;;5032404;28;20049;-47
2021/01/15 01:01:21;;;;;;;1.38;0.50;;;3.30;99.90;;;;;;5028013;28;20418;-47
2021/01/15 01:03:49;;;;;;;0.70;0.50;;;3.20;99.90;;;;;;5024455;28;20049;-47
2021/01/15 01:06:18;;;;;;;3.55;0.80;;;3.10;99.90;;;;;;5029405;28;20049;-47
2021/01/15 01:08:45;;;;;;;1.52;0.68;;;2.90;99.90;;;;;;5028545;28;20390;-47
2021/01/15 01:11:14;;;;;;;46.83;20.73;;;2.90;99.90;;;;;;5016862;28;20054;-46
2021/01/15 01:13:41;;;;;;;42.42;15.48;;;2.70;99.90;;;;;;5026753;28;20056;-47
2021/01/15 01:16:07;;;;;;;11.95;4.63;;;2.40;99.90;;;;;;5019052;28;20124;-48
2021/01/15 01:18:35;;;;;;;8.27;2.03;;;2.00;99.90;;;;;;5027632;28;20129;-47
2021/01/15 01:21:03;;;;;;;6.55;1.92;;;1.80;99.90;;;;;;5014871;28;20081;-47
2021/01/15 01:23:29;;;;;;;3.58;1.23;;;1.60;99.90;;;;;;5030888;28;20057;-47
2021/01/15 01:25:56;;;;;;;1.30;0.88;;;1.60;99.90;;;;;;5029255;28;20773;-47
2021/01/15 01:28:22;;;;;;;3.22;0.95;;;1.50;99.90;;;;;;5020871;28;20045;-47
2021/01/15 01:30:49;;;;;;;2.95;0.90;;;1.60;99.90;;;;;;5026591;28;20531;-47
2021/01/15 01:33:16;;;;;;;2.83;1.10;;;1.60;99.90;;;;;;5013898;28;20054;-47
2021/01/15 01:35:43;;;;;;;2.45;0.98;;;1.60;99.90;;;;;;5025019;28;20046;-47
2021/01/15 01:38:09;;;;;;;2.55;1.05;;;1.60;99.90;;;;;;5016371;28;20053;-47
2021/01/15 01:40:36;;;;;;;1.45;0.80;;;1.70;99.90;;;;;;5021583;28;20057;-48
2021/01/15 01:43:03;;;;;;;6.97;0.80;;;1.70;99.90;;;;;;5028002;28;20042;-47
2021/01/15 01:45:30;;;;;;;2.10;0.60;;;1.70;99.90;;;;;;5023120;28;20061;-47
2021/01/15 01:47:59;;;;;;;1.48;0.70;;;1.70;99.90;;;;;;5027953;28;20407;-47
2021/01/15 01:50:28;;;;;;;1.35;0.70;;;1.80;99.90;;;;;;5029089;28;20475;-47
2021/01/15 01:52:55;;;;;;;2.80;0.80;;;1.80;99.90;;;;;;5028591;28;20057;-47
2021/01/15 01:55:22;;;;;;;1.80;0.80;;;1.80;99.90;;;;;;5018165;28;20056;-47
2021/01/15 01:57:49;;;;;;;3.75;0.90;;;1.80;99.90;;;;;;5029407;28;20045;-47
2021/01/15 02:00:16;;;;;;;4.53;0.80;;;1.80;99.90;;;;;;5027578;28;20233;-47
2021/01/15 02:02:43;;;;;;;4.78;1.52;;;1.60;99.90;;;;;;5017765;28;20077;-47
2021/01/15 02:05:10;;;;;;;6.53;1.13;;;1.60;99.90;;;;;;5027061;28;20060;-48
2021/01/15 02:07:41;;;;;;;1.98;1.30;;;1.50;99.90;;;;;;5030316;28;20570;-47
2021/01/15 02:10:25;;;;;;;3.00;1.10;;;1.50;99.90;;;;;;5026887;28;20057;-47
2021/01/15 02:12:58;;;;;;;6.47;0.90;;;1.40;99.90;;;;;;5016887;28;20060;-47
2021/01/15 02:15:39;;;;;;;1.13;1.00;;;1.40;99.90;;;;;;5029034;28;20054;-47
2021/01/15 02:18:38;;;;;;;3.38;0.90;;;1.30;99.90;;;;;;5028802;28;20710;-47
2021/01/15 02:21:33;;;;;;;1.42;0.80;;;1.20;99.90;;;;;;5013706;28;20128;-47
2021/01/15 02:24:12;;;;;;;1.00;0.70;;;1.10;99.90;;;;;;5033001;28;20046;-47
2021/01/15 02:27:02;;;;;;;4.85;0.70;;;1.10;99.90;;;;;;5033400;28;20057;-47
2021/01/15 02:29:30;;;;;;;1.98;0.88;;;1.10;99.90;;;;;;5017161;28;20060;-48
2021/01/15 02:32:18;;;;;;;3.40;0.90;;;1.10;99.90;;;;;;5032946;28;20363;-47
2021/01/15 02:35:03;;;;;;;6.85;1.20;;;1.10;99.90;;;;;;5031452;28;20044;-47
2021/01/15 02:37:53;;;;;;;2.10;0.98;;;1.10;99.90;;;;;;5018746;28;20046;-47
2021/01/15 02:40:28;;;;;;;2.42;1.00;;;1.10;99.90;;;;;;5031255;28;20065;-47
2021/01/15 02:42:56;;;;;;;1.30;0.80;;;1.00;99.90;;;;;;5026501;28;20049;-47
2021/01/15 02:45:23;;;;;;;3.15;1.50;;;0.90;99.90;;;;;;5031640;28;20069;-47
2021/01/15 02:47:54;;;;;;;2.80;0.70;;;0.70;99.90;;;;;;5031687;28;20049;-47
2021/01/15 02:50:23;;;;;;;2.20;0.98;;;0.70;99.90;;;;;;5019113;28;20054;-47
2021/01/15 02:52:50;;;;;;;2.05;0.82;;;0.60;99.90;;;;;;5029945;28;20050;-47
2021/01/15 02:55:17;;;;;;;1.52;0.60;;;0.70;99.90;;;;;;5032323;28;20061;-47
2021/01/15 02:57:44;;;;;;;2.83;0.60;;;0.80;99.90;;;;;;5032445;28;20056;-48
2021/01/15 03:00:16;;;;;;;2.55;0.60;;;0.90;99.90;;;;;;5023597;28;20063;-48
2021/01/15 03:03:16;;;;;;;2.47;1.10;;;1.00;99.90;;;;;;5023030;28;20058;-47
2021/01/15 03:05:51;;;;;;;3.50;0.70;;;0.90;99.90;;;;;;5029323;28;20061;-47
2021/01/15 03:08:21;;;;;;;2.90;0.65;;;0.80;99.90;;;;;;5023900;28;20050;-47
2021/01/15 03:10:51;;;;;;;2.28;0.98;;;0.70;99.90;;;;;;5025439;28;20128;-47
2021/01/15 03:13:18;;;;;;;4.82;0.80;;;0.50;99.90;;;;;;5030565;28;20045;-47
2021/01/15 03:15:46;;;;;;;2.70;0.70;;;0.40;99.90;;;;;;5033523;28;20483;-47
2021/01/15 03:18:14;;;;;;;4.45;0.70;;;0.40;99.90;;;;;;5032422;28;20053;-47
2021/01/15 03:20:41;;;;;;;1.00;0.80;;;0.40;99.90;;;;;;5025353;28;20058;-47
2021/01/15 03:23:08;;;;;;;5.25;1.67;;;0.50;99.90;;;;;;5029276;28;20046;-47
2021/01/15 03:25:34;;;;;;;4.32;0.60;;;0.50;99.90;;;;;;5032242;28;20096;-47
2021/01/15 03:28:01;;;;;;;4.00;0.65;;;0.50;99.90;;;;;;5026549;28;20057;-47
2021/01/15 03:30:29;;;;;;;5.80;0.60;;;0.50;99.90;;;;;;5022946;28;20429;-47
2021/01/15 03:32:59;;;;;;;0.93;0.60;;;0.50;99.90;;;;;;5025359;28;20049;-47
2021/01/15 03:35:27;;;;;;;2.20;0.80;;;0.50;99.90;;;;;;5031251;28;20406;-47
2021/01/15 03:38:04;;;;;;;0.70;0.43;;;0.60;99.90;;;;;;5014625;28;20054;-47
2021/01/15 03:40:39;;;;;;;1.50;0.60;;;0.60;99.90;;;;;;5028235;28;20041;-47
2021/01/15 03:43:17;;;;;;;0.55;0.50;;;0.70;99.90;;;;;;5019709;28;20041;-48
2021/01/15 03:45:49;;;;;;;3.08;0.50;;;0.80;99.90;;;;;;5031549;28;20132;-47
2021/01/15 03:48:23;;;;;;;4.70;0.50;;;0.80;99.90;;;;;;5031126;28;20467;-47
2021/01/15 03:50:50;;;;;;;;;;;0.90;99.90;;;;;;5015223;28;20509;-48
2021/01/15 03:53:17;;;;;;;1.70;0.50;;;0.90;99.90;;;;;;5031232;28;19952;-47
2021/01/15 03:55:44;;;;;;;1.95;0.50;;;0.90;99.90;;;;;;5027626;28;20065;-47
2021/01/15 03:58:11;;;;;;;1.45;0.40;;;0.90;99.90;;;;;;5031937;28;20502;-47
2021/01/15 04:00:37;;;;;;;2.42;0.50;;;1.00;99.90;;;;;;5032487;28;20406;-47
2021/01/15 04:03:06;;;;;;;5.75;0.50;;;1.00;99.90;;;;;;5019747;28;20050;-47
2021/01/15 04:05:34;;;;;;;0.95;0.47;;;1.00;99.90;;;;;;5026261;28;20057;-47
2021/01/15 04:08:01;;;;;;;2.90;0.50;;;1.00;99.90;;;;;;5013929;28;20124;-47
2021/01/15 04:10:28;;;;;;;4.45;0.70;;;0.90;99.90;;;;;;5028098;28;20045;-47
2021/01/15 04:12:55;;;;;;;1.38;0.68;;;0.80;99.90;;;;;;5018237;28;20064;-47
2021/01/15 04:15:21;;;;;;;3.35;0.47;;;0.80;99.90;;;;;;5029699;28;20053;-47
2021/01/15 04:17:47;;;;;;;1.90;0.52;;;0.70;99.90;;;;;;5031381;28;20052;-47
2021/01/15 04:20:15;;;;;;;0.70;0.50;;;0.80;99.90;;;;;;5020600;28;20472;-47
2021/01/15 04:22:44;;;;;;;1.63;0.40;;;0.80;99.90;;;;;;5030274;28;20499;-47
2021/01/15 04:25:11;;;;;;;1.48;0.40;;;0.90;99.90;;;;;;5031338;28;20473;-48
2021/01/15 04:27:39;;;;;;;1.40;0.45;;;0.80;99.90;;;;;;5029961;28;20046;-47
2021/01/15 04:30:07;;;;;;;1.30;0.60;;;0.80;99.90;;;;;;5031001;28;20057;-48
2021/01/15 04:32:34;;;;;;;1.63;0.60;;;0.80;99.90;;;;;;5023597;28;20046;-47
2021/01/15 04:35:02;;;;;;;2.53;0.50;;;0.80;99.90;;;;;;5028066;28;20045;-47
2021/01/15 04:37:29;;;;;;;8.95;1.17;;;0.60;99.90;;;;;;5021200;28;20570;-48
2021/01/15 04:39:55;;;;;;;1.67;0.50;;;0.60;99.90;;;;;;5024328;28;20402;-47
2021/01/15 04:42:24;;;;;;;2.35;0.60;;;0.80;99.90;;;;;;5019548;28;20129;-47
2021/01/15 04:44:52;;;;;;;0.60;0.40;;;0.90;99.90;;;;;;5029296;28;20045;-47
2021/01/15 04:47:20;;;;;;;0.82;0.40;;;0.90;99.90;;;;;;5023853;28;20057;-47
2021/01/15 04:49:47;;;;;;;3.78;0.50;;;0.90;99.90;;;;;;5030251;28;20168;-47
2021/01/15 04:52:15;;;;;;;1.00;0.40;;;0.80;99.90;;;;;;5030904;28;20049;-47
2021/01/15 04:54:46;;;;;;;1.95;0.47;;;0.80;99.90;;;;;;5031101;28;20463;-46
2021/01/15 04:57:14;;;;;;;0.60;0.40;;;0.80;99.90;;;;;;5030004;28;20088;-47
2021/01/15 04:59:46;;;;;;;0.63;0.40;;;0.90;99.90;;;;;;5022057;28;20077;-47
2021/01/15 05:02:15;;;;;;;1.45;0.60;;;0.80;99.90;;;;;;5025398;28;20046;-47
2021/01/15 05:04:41;;;;;;;1.25;0.50;;;0.80;99.90;;;;;;5016814;28;20041;-47
2021/01/15 05:07:23;;;;;;;1.52;0.50;;;0.80;99.90;;;;;;5029239;28;20041;-47
2021/01/15 05:09:56;;;;;;;1.98;0.50;;;0.70;99.90;;;;;;5028424;28;20042;-47
2021/01/15 05:12:29;;;;;;;1.08;0.60;;;0.60;99.90;;;;;;5015051;28;20576;-48
2021/01/15 05:14:56;;;;;;;1.15;0.47;;;0.50;99.90;;;;;;5026460;28;20060;-47
2021/01/15 05:17:26;;;;;;;1.50;0.40;;;0.50;99.90;;;;;;5013904;28;20065;-47
2021/01/15 05:19:57;;;;;;;2.38;0.50;;;0.50;99.90;;;;;;5024315;28;20559;-47
2021/01/15 05:22:23;;;;;;;1.02;0.40;;;0.50;99.90;;;;;;5020066;28;20485;-47
2021/01/15 05:24:50;;;;;;;3.35;0.40;;;0.50;99.90;;;;;;5024420;28;20053;-47
2021/01/15 05:30:21;;;;;;;1.00;0.43;;;0.40;99.90;;;;;;5012001;28;20058;-47
2021/01/15 05:32:50;;;;;;;0.98;0.40;;;0.50;99.90;;;;;;5025601;28;20061;-47
2021/01/15 05:35:16;;;;;;;1.63;0.77;;;0.50;99.90;;;;;;5028472;28;20058;-47
2021/01/15 05:37:56;;;;;;;0.60;0.40;;;0.60;99.90;;;;;;5022768;28;20246;-48
2021/01/15 05:40:45;;;;;;;0.80;0.40;;;0.60;99.90;;;;;;5026580;28;20072;-47
2021/01/15 05:43:22;;;;;;;0.98;0.40;;;0.70;99.90;;;;;;5015571;28;20407;-47
2021/01/15 05:46:10;;;;;;;2.30;0.57;;;0.60;99.90;;;;;;5029084;28;20045;-47
2021/01/15 05:48:42;;;;;;;2.45;0.70;;;0.60;99.90;;;;;;5029939;28;20104;-48
2021/01/15 05:51:25;;;;;;;1.45;0.70;;;0.60;99.90;;;;;;5020624;28;20442;-47
2021/01/15 05:53:52;;;;;;;3.17;0.50;;;0.60;99.90;;;;;;5026381;28;20053;-47
2021/01/15 05:56:20;;;;;;;0.95;0.45;;;0.70;99.90;;;;;;5015918;28;20076;-48
2021/01/15 05:59:03;;;;;;;1.73;0.47;;;0.70;99.90;;;;;;5030885;28;20054;-47
2021/01/15 06:01:50;;;;;;;2.47;0.40;;;0.70;99.90;;;;;;5027968;28;20474;-47
2021/01/15 06:04:37;;;;;;;0.93;0.40;;;0.70;99.90;;;;;;5024992;28;20054;-47
2021/01/15 06:07:09;;;;;;;0.65;0.40;;;0.70;99.90;;;;;;5024162;28;20572;-47
2021/01/15 06:09:37;;;;;;;2.92;0.50;;;0.60;99.90;;;;;;5018520;28;20053;-47
2021/01/15 06:12:05;;;;;;;2.25;0.45;;;0.50;99.90;;;;;;5029492;28;20064;-48
2021/01/15 06:14:32;;;;;;;2.30;1.55;;;0.50;99.90;;;;;;5027598;28;20053;-47
2021/01/15 06:17:06;;;;;;;2.78;0.90;;;0.40;99.90;;;;;;5015230;28;20042;-47
2021/01/15 06:19:46;;;;;;;1.48;0.50;;;0.40;99.90;;;;;;5026413;28;20057;-47
2021/01/15 06:22:44;;;;;;;2.85;0.40;;;0.40;99.90;;;;;;5016072;28;20046;-47
2021/01/15 06:28:08;;;;;;;26.20;9.52;;;0.30;99.90;;;;;;5034584;28;20049;-79
2021/01/15 06:30:36;;;;;;;4.70;0.85;;;0.30;99.90;;;;;;5024661;28;20042;-79
2021/01/15 06:33:14;;;;;;;5.25;0.73;;;0.30;99.90;;;;;;5030381;28;20051;-79
2021/01/15 06:35:43;;;;;;;4.22;0.50;;;0.30;99.90;;;;;;5037874;28;20041;-80
2021/01/15 06:38:18;;;;;;;1.13;0.50;;;0.30;99.90;;;;;;5026299;28;20141;-80
2021/01/15 06:40:47;;;;;;;0.70;0.40;;;0.40;99.90;;;;;;5025220;28;20108;-80
2021/01/15 06:43:20;;;;;;;3.38;0.50;;;0.40;99.90;;;;;;5041106;28;20101;-80
2021/01/15 06:45:49;;;;;;;1.60;0.50;;;0.50;99.90;;;;;;5021209;28;20136;-79
2021/01/15 06:48:19;;;;;;;1.70;0.63;;;0.40;99.90;;;;;;5031669;28;20053;-80
2021/01/15 06:50:48;;;;;;;2.92;0.90;;;0.40;99.90;;;;;;5027364;28;20052;-79
2021/01/15 06:53:21;;;;;;;1.67;0.65;;;0.40;99.90;;;;;;5017480;28;20056;-78
2021/01/15 06:55:52;;;;;;;32.88;12.82;;;0.40;99.90;;;;;;5019012;28;20445;-78
2021/01/15 06:58:25;;;;;;;46.92;18.48;;;0.40;99.90;;;;;;5021637;28;20049;-78
2021/01/15 07:00:54;;;;;;;4.60;1.83;;;0.50;99.90;;;;;;5028555;28;20049;-78
2021/01/15 07:04:01;;;;;;;2.70;0.80;;;0.60;99.90;;;;;;5031933;28;20058;-78
2021/01/15 07:06:31;;;;;;;11.77;4.95;;;0.70;99.90;;;;;;5014812;28;20049;-78
2021/01/15 07:09:05;;;;;;;7.85;4.10;;;0.70;99.90;;;;;;5019351;28;20053;-78
2021/01/15 07:11:33;;;;;;;0.90;0.70;;;0.70;99.90;;;;;;5038124;28;20045;-79
2021/01/15 07:14:04;;;;;;;1.63;0.52;;;0.80;99.90;;;;;;5036862;28;20393;-79
2021/01/15 07:16:38;;;;;;;4.40;1.85;;;0.80;99.90;;;;;;5038963;28;20048;-79
2021/01/15 07:19:05;;;;;;;4.00;1.30;;;0.90;99.90;;;;;;5035132;28;20483;-79
2021/01/15 07:21:36;;;;;;;2.28;0.70;;;1.00;99.90;;;;;;5039087;28;20049;-79
2021/01/15 07:24:10;;;;;;;5.88;1.50;;;1.00;99.90;;;;;;5020170;28;20046;-79
2021/01/15 07:26:42;;;;;;;;;;;0.90;99.90;;;;;;5035756;28;20059;-79
2021/01/15 07:29:13;;;;;;;2.38;0.90;;;0.90;99.90;;;;;;5020701;28;19924;-79
2021/01/15 07:31:43;;;;;;;7.40;1.58;;;1.00;99.90;;;;;;5038823;28;20144;-79
2021/01/15 07:34:15;;;;;;;2.58;0.77;;;0.90;99.90;;;;;;5038948;28;20127;-79
2021/01/15 07:36:42;;;;;;;1.17;0.80;;;0.90;99.90;;;;;;5034591;28;20410;-79
2021/01/15 07:39:11;;;;;;;9.52;3.50;;;0.80;99.90;;;;;;5029181;28;20045;-79
2021/01/15 07:41:52;;;;;;;22.05;6.35;;;0.80;99.90;;;;;;5038646;28;20045;-79
2021/01/15 07:44:22;;;;;;;45.80;16.73;;;0.80;99.90;;;;;;5021406;28;20225;-79
2021/01/15 07:46:59;;;;;;;27.50;11.43;;;0.70;99.90;;;;;;5020961;28;20473;-79
2021/01/15 07:49:45;;;;;;;25.70;10.15;;;0.70;99.90;;;;;;5016647;28;20049;-79
2021/01/15 07:52:13;;;;;;;16.35;6.53;;;0.80;99.90;;;;;;5028646;28;20533;-79
2021/01/15 07:54:57;;;;;;;8.40;1.45;;;0.90;99.90;;;;;;5035202;28;20061;-79
2021/01/15 07:57:24;;;;;;;5.50;0.95;;;0.90;99.90;;;;;;5028680;28;20471;-79
2021/01/15 07:59:51;;;;;;;12.55;4.55;;;0.90;99.90;;;;;;5021776;28;20048;-79
2021/01/15 08:02:19;;;;;;;22.15;9.48;;;1.00;99.90;;;;;;5038929;28;20063;-79
2021/01/15 08:04:47;;;;;;;14.70;6.85;;;1.00;99.90;;;;;;5037929;28;20120;-79
2021/01/15 08:07:21;;;;;;;22.20;12.45;;;1.00;99.90;;;;;;5036919;28;20052;-79
2021/01/15 08:09:48;;;;;;;12.55;5.57;;;1.00;99.90;;;;;;5026784;28;20055;-79
2021/01/15 08:12:14;;;;;;;20.38;8.50;;;1.00;99.90;;;;;;5022660;28;20046;-79
2021/01/15 08:14:41;;;;;;;7.93;1.40;;;1.00;99.90;;;;;;5036739;28;20386;-79
2021/01/15 08:17:11;;;;;;;2.33;1.00;;;1.10;99.90;;;;;;5012469;28;20051;-79
2021/01/15 08:19:38;;;;;;;2.10;0.80;;;1.10;99.90;;;;;;5018438;28;20054;-79
2021/01/15 08:22:13;;;;;;;1.77;0.70;;;1.20;99.90;;;;;;5004142;28;20046;-79
2021/01/15 08:24:58;;;;;;;4.78;1.00;;;1.30;99.90;;;;;;5021219;28;20064;-79
2021/01/15 08:27:26;;;;;;;2.65;1.23;;;1.40;99.90;;;;;;5021251;28;20057;-79
2021/01/15 08:30:06;;;;;;;3.25;1.02;;;1.40;99.90;;;;;;5014754;28;20483;-79
2021/01/15 08:32:40;;;;;;;3.50;1.05;;;1.50;99.90;;;;;;5035998;28;20060;-79
2021/01/15 08:35:12;;;;;;;3.22;1.13;;;1.60;99.90;;;;;;5020858;28;20046;-80
2021/01/15 08:37:59;;;;;;;6.32;2.00;;;1.60;99.90;;;;;;5016183;28;20426;-79
2021/01/15 08:40:40;;;;;;;15.13;4.60;;;1.70;99.90;;;;;;5015406;28;20050;-79
2021/01/15 08:43:07;;;;;;;14.45;4.95;;;1.80;99.90;;;;;;5039931;28;20044;-79
2021/01/15 08:45:34;;;;;;;3.03;1.08;;;1.90;99.90;;;;;;5018317;28;20068;-79
2021/01/15 08:48:01;;;;;;;3.05;1.10;;;2.10;99.90;;;;;;5020357;28;20124;-80
2021/01/15 08:50:29;;;;;;;9.90;2.00;;;2.20;99.90;;;;;;5022664;28;20059;-79
2021/01/15 08:53:00;;;;;;;5.07;1.42;;;2.30;99.90;;;;;;5019619;28;20053;-79
2021/01/15 08:55:27;;;;;;;2.85;1.55;;;2.30;99.90;;;;;;5020886;28;20049;-79
2021/01/15 08:57:55;;;;;;;5.38;2.13;;;2.40;99.90;;;;;;5036977;28;20045;-79
2021/01/15 09:00:23;;;;;;;3.80;1.77;;;2.50;99.90;;;;;;5041021;28;20481;-79
2021/01/15 09:02:52;;;;;;;5.70;1.00;;;2.60;99.90;;;;;;5023973;28;20046;-79
2021/01/15 09:05:20;;;;;;;2.67;0.98;;;2.70;99.90;;;;;;5018918;28;20085;-79
2021/01/15 09:07:49;;;;;;;5.15;1.38;;;3.00;99.90;;;;;;5034669;28;20052;-78
2021/01/15 09:10:17;;;;;;;6.55;1.65;;;3.00;99.90;;;;;;5016722;28;20060;-79
2021/01/15 09:12:46;;;;;;;8.27;3.17;;;3.00;99.90;;;;;;5022222;28;20061;-79
2021/01/15 09:15:19;;;;;;;6.90;2.92;;;3.00;99.90;;;;;;5036237;28;20072;-79
2021/01/15 09:17:46;;;;;;;;;;;3.50;99.90;;;;;;5016989;28;20121;-79
2021/01/15 09:20:17;;;;;;;9.77;4.22;;;3.40;99.90;;;;;;5037030;28;19925;-79
2021/01/15 09:22:44;;;;;;;14.10;5.78;;;3.20;99.90;;;;;;5021780;28;20045;-79
2021/01/15 09:25:15;;;;;;;11.32;5.38;;;3.10;99.90;;;;;;5034500;28;20386;-79
2021/01/15 09:27:44;;;;;;;17.80;7.32;;;3.10;99.90;;;;;;5034600;28;20506;-79
2021/01/15 09:30:12;;;;;;;24.52;11.65;;;3.10;99.90;;;;;;5032896;28;20053;-79
2021/01/15 09:32:46;;;;;;;16.58;8.25;;;3.10;99.90;;;;;;5015913;28;20045;-79
2021/01/15 09:35:14;;;;;;;14.10;5.78;;;3.40;99.90;;;;;;5033984;28;20402;-79
2021/01/15 09:37:41;;;;;;;20.17;8.52;;;3.40;99.90;;;;;;5011851;28;20053;-79
2021/01/15 09:40:09;;;;;;;11.27;4.53;;;3.40;99.90;;;;;;5024734;28;20491;-79
2021/01/15 09:42:36;;;;;;;2.50;1.00;;;3.80;99.90;;;;;;5034805;28;20407;-79
2021/01/15 09:45:04;;;;;;;4.95;0.70;;;4.20;99.90;;;;;;5015704;28;20037;-79
2021/01/15 09:47:31;;;;;;;3.08;1.48;;;4.50;99.90;;;;;;5038630;28;20060;-79
2021/01/15 09:49:57;;;;;;;1.88;1.15;;;4.80;99.90;;;;;;5034106;28;20056;-79
2021/01/15 09:52:24;;;;;;;0.82;0.20;;;4.90;99.90;;;;;;5018392;28;20125;-79
2021/01/15 09:54:50;;;;;;;0.60;0.30;;;5.40;99.90;;;;;;5027567;28;20954;-79
2021/01/15 09:57:18;;;;;;;5.68;0.80;;;5.50;99.90;;;;;;5031631;28;20057;-80
2021/01/15 09:59:49;;;;;;;3.13;0.60;;;5.40;99.90;;;;;;5021647;28;20096;-80
2021/01/15 10:02:15;;;;;;;0.60;0.32;;;5.40;99.90;;;;;;5016941;28;20052;-79
2021/01/15 10:04:42;;;;;;;1.52;0.20;;;5.40;99.90;;;;;;5021158;28;20060;-79
2021/01/15 10:07:11;;;;;;;1.00;0.20;;;5.60;99.90;;;;;;5033131;28;20059;-79
2021/01/15 10:09:38;;;;;;;1.80;0.20;;;5.80;99.90;;;;;;5026648;28;20462;-79
2021/01/15 10:12:05;;;;;;;0.90;0.20;;;6.00;99.90;;;;;;5018600;28;20056;-79
2021/01/15 10:14:32;;;;;;;2.35;0.20;;;6.10;99.90;;;;;;5034571;28;20053;-79
2021/01/15 10:16:59;;;;;;;2.05;0.20;;;6.30;99.90;;;;;;5025027;28;20053;-79
2021/01/15 10:19:30;;;;;;;1.60;0.20;;;6.30;99.90;;;;;;5012657;28;20079;-79
2021/01/15 10:21:56;;;;;;;0.30;0.20;;;6.40;99.90;;;;;;5012089;28;20052;-79
2021/01/15 10:24:23;;;;;;;2.35;0.57;;;6.40;99.90;;;;;;5018424;28;20084;-80
2021/01/15 10:26:50;;;;;;;0.80;0.30;;;6.50;99.90;;;;;;5019903;28;20057;-80
2021/01/15 10:29:17;;;;;;;5.22;0.20;;;6.50;99.90;;;;;;5035745;28;20052;-79
2021/01/15 10:31:47;;;;;;;0.82;0.30;;;6.60;99.90;;;;;;5018187;28;20064;-79
2021/01/15 10:34:14;;;;;;;1.10;0.30;;;6.60;99.90;;;;;;5037092;28;20128;-79
2021/01/15 10:36:42;;;;;;;2.45;0.20;;;6.60;99.90;;;;;;5036258;28;20046;-79
2021/01/15 10:39:10;;;;;;;0.10;0.10;;;6.70;99.90;;;;;;5021530;28;20050;-79
2021/01/15 10:41:42;;;;;;;3.47;0.20;;;6.70;99.90;;;;;;5010578;28;20045;-79
2021/01/15 10:44:10;;;;;;;0.43;0.30;;;6.70;99.90;;;;;;5023985;28;20053;-79
2021/01/15 10:46:41;;;;;;;2.03;0.20;;;6.70;99.90;;;;;;5034365;28;20058;-79
2021/01/15 10:49:09;;;;;;;0.25;0.17;;;6.70;99.00;;;;;;5040711;28;20131;-79
2021/01/15 10:51:43;;;;;;;1.10;0.10;;;6.80;99.90;;;;;;5042261;28;20446;-79
2021/01/15 10:54:11;;;;;;;2.25;0.20;;;6.90;97.40;;;;;;5037338;28;20067;-79
2021/01/15 10:56:40;;;;;;;2.45;0.40;;;7.00;99.90;;;;;;5020753;28;20053;-79
2021/01/15 10:59:07;;;;;;;0.50;0.30;;;7.00;99.90;;;;;;5034536;28;20050;-79
2021/01/15 11:01:35;;;;;;;1.45;0.20;;;7.10;99.90;;;;;;5037975;28;20063;-79
2021/01/15 11:04:03;;;;;;;0.35;0.20;;;7.00;98.90;;;;;;5038536;28;20052;-79
2021/01/15 11:06:39;;;;;;;0.63;0.40;;;6.80;98.30;;;;;;5017857;28;20462;-79
2021/01/15 11:09:08;;;;;;;3.50;0.20;;;6.70;99.90;;;;;;5038771;28;20049;-79
2021/01/15 11:11:53;;;;;;;0.98;0.25;;;6.70;99.90;;;;;;5018585;28;20104;-79
2021/01/15 11:14:20;;;;;;;0.50;0.25;;;6.70;99.70;;;;;;5038114;28;20069;-79
2021/01/15 11:16:47;;;;;;;0.88;0.60;;;6.70;99.90;;;;;;5034533;28;20053;-79
2021/01/15 11:19:15;;;;;;;0.63;0.50;;;6.80;99.90;;;;;;5031370;28;20056;-79
2021/01/15 11:21:41;;;;;;;1.70;0.30;;;6.90;99.80;;;;;;5020825;28;20541;-79
2021/01/15 11:24:10;;;;;;;0.57;0.30;;;7.00;99.90;;;;;;5019270;28;20290;-79
2021/01/15 11:26:37;;;;;;;1.65;0.30;;;7.00;99.90;;;;;;5040546;28;20061;-79
2021/01/15 11:29:08;;;;;;;1.15;0.40;;;7.00;99.90;;;;;;5020921;28;20493;-79
2021/01/15 11:31:35;;;;;;;0.85;0.20;;;7.10;99.90;;;;;;5019556;28;20072;-79
2021/01/15 11:34:03;;;;;;;0.38;0.20;;;7.10;99.30;;;;;;5036613;28;20095;-79
2021/01/15 11:36:32;;;;;;;1.25;0.30;;;7.10;99.00;;;;;;5039717;28;20049;-79
2021/01/15 11:39:17;;;;;;;1.00;0.20;;;7.20;99.90;;;;;;5038306;28;20064;-79
2021/01/15 11:41:51;;;;;;;2.33;0.20;;;7.10;97.40;;;;;;5037783;28;20046;-79
2021/01/15 11:44:18;;;;;;;1.13;0.20;;;7.00;98.30;;;;;;5026667;28;20056;-79
2021/01/15 11:46:45;;;;;;;1.05;0.20;;;7.10;98.90;;;;;;5036251;28;20045;-79
2021/01/15 11:49:27;;;;;;;1.48;0.30;;;7.00;99.90;;;;;;5031812;28;20046;-79
2021/01/15 11:51:56;;;;;;;0.43;0.30;;;7.30;99.90;;;;;;5030060;28;20475;-79
2021/01/15 11:54:27;;;;;;;0.93;0.30;;;7.50;99.90;;;;;;5014903;28;20076;-79
2021/01/15 11:56:54;;;;;;;0.60;0.20;;;7.30;98.90;;;;;;5026721;28;20402;-79
2021/01/15 11:59:20;;;;;;;0.57;0.20;;;7.00;97.70;;;;;;5029180;28;20054;-79
2021/01/15 12:01:47;;;;;;;0.32;0.30;;;6.90;98.90;;;;;;5035609;28;20052;-79
2021/01/15 12:04:13;;;;;;;2.10;0.30;;;6.80;97.40;;;;;;5032867;28;20042;-79
2021/01/15 12:06:40;;;;;;;1.20;0.20;;;6.80;98.20;;;;;;5017587;28;20045;-79
2021/01/15 12:09:06;;;;;;;2.90;0.30;;;6.90;99.40;;;;;;5025615;28;20050;-79
2021/01/15 12:11:37;;;;;;;0.90;0.20;;;6.80;98.10;;;;;;5012352;28;20057;-79
2021/01/15 12:14:04;;;;;;;1.30;0.20;;;6.70;97.90;;;;;;5033379;28;21171;-79
2021/01/15 12:16:30;;;;;;;0.50;0.20;;;6.70;99.10;;;;;;5018558;28;20052;-79
2021/01/15 12:18:57;;;;;;;0.88;0.32;;;6.80;98.90;;;;;;5034113;28;20132;-79
2021/01/15 12:21:24;;;;;;;0.57;0.20;;;6.80;99.20;;;;;;5037933;28;20141;-79
2021/01/15 12:23:50;;;;;;;0.85;0.10;;;6.60;98.60;;;;;;5035386;28;20041;-79
2021/01/15 12:26:21;;;;;;;1.67;0.10;;;6.50;99.00;;;;;;5010288;28;20058;-79
2021/01/15 12:28:47;;;;;;;2.45;0.55;;;6.50;99.50;;;;;;5033764;28;20049;-79
2021/01/15 12:31:15;;;;;;;3.15;1.00;;;6.50;99.90;;;;;;5019124;28;20049;-79
2021/01/15 12:33:43;;;;;;;8.65;1.50;;;6.50;99.70;;;;;;5018142;28;20080;-79
2021/01/15 12:36:11;;;;;;;17.20;5.30;;;6.50;99.90;;;;;;5019960;28;20053;-79
2021/01/15 12:38:38;;;;;;;0.47;0.30;;;6.50;99.70;;;;;;5026326;28;20136;-77
2021/01/15 12:41:05;;;;;;;3.45;0.50;;;6.40;99.90;;;;;;5023314;28;20049;-77
2021/01/15 12:43:32;;;;;;;0.63;0.20;;;6.60;99.90;;;;;;5032225;28;20057;-77
2021/01/15 12:45:58;;;;;;;1.55;0.65;;;6.60;99.90;;;;;;5010092;28;20486;-77
2021/01/15 12:48:25;;;;;;;0.60;0.40;;;6.60;99.90;;;;;;4997649;28;20555;-77
2021/01/15 12:50:51;;;;;;;0.55;0.20;;;6.70;99.90;;;;;;5009064;28;20041;-77
2021/01/15 12:53:18;;;;;;;0.10;0.10;;;6.70;99.90;;;;;;5019572;28;20127;-78
2021/01/15 12:55:44;;;;;;;0.20;0.10;;;6.70;99.90;;;;;;5023710;28;20056;-78
2021/01/15 12:58:11;;;;;;;1.40;0.20;;;6.60;99.90;;;;;;5027383;28;20049;-77
2021/01/15 13:00:37;;;;;;;1.45;0.10;;;6.60;99.90;;;;;;5027111;28;20053;-77
2021/01/15 13:03:04;;;;;;;0.40;0.10;;;6.70;99.90;;;;;;5000415;28;20121;-77
2021/01/15 13:05:32;;;;;;;1.95;0.10;;;6.80;99.90;;;;;;5027485;28;20152;-77
2021/01/15 13:07:58;;;;;;;2.08;0.10;;;6.70;99.90;;;;;;5028224;28;20052;-77
2021/01/15 13:10:26;;;;;;;2.25;0.10;;;6.60;99.90;;;;;;5027710;28;20490;-78
2021/01/15 13:12:52;;;;;;;0.90;0.20;;;6.50;99.90;;;;;;5018471;28;20052;-78
2021/01/15 13:15:25;;;;;;;1.25;0.60;;;6.50;99.90;;;;;;5025869;28;20450;-78
2021/01/15 13:17:55;;;;;;;0.63;0.10;;;6.60;99.90;;;;;;5017932;28;20054;-78
2021/01/15 13:20:24;;;;;;;0.73;0.20;;;6.60;99.90;;;;;;5020764;28;20064;-78